Bondurant, Iowa
Current Conditions -  °F | °C
As of 8:15 AM on Wednesday 28 Jan 2015 (Local Time) from KIKV Reporting Station
Haze Haze  
Wind Chill: 21°   Ceiling: 900
Heat Index: 30°   Visibility: 4mi
Dew Point: 28°   Wind: 12mph
Humidity: 93%   Direction: 130°SE
Pressure: 30"   Gusts: 18mph
Location:  41.7°N, 93.46°W
Report Text: KIKV 281415Z AUTO 13010G16KT 4SM BR OVC009 M01/M02 A3000 RMK AO2
Loading
Personal Weather Stations






























Interactive Weather Map New forecast layout! Learn more

10-Day Weather Forecast

Advertisements
Track Severe Weather on mobile